Time;durP1;ratioP1;P1;durP2;ratioP2;P2;SDS_P1;SDS_P2;PMS_P1;PMS_P2;Temp;Humidity;BMP_temperature;BMP_pressure;BME280_temperature;BME280_humidity;BME280_pressure;Samples;Min_cycle;Max_cycle;Signal;HPM_P1;HPM_P2
2021/12/21 00:04:02;;;;;;;27.30;15.00;;;;;;;0.14;74.34;96556.84;10287475;28;96936;-65
2021/12/21 00:09:05;;;;;;;26.88;15.75;;;;;;;0.15;73.76;96552.53;10304102;28;96919;-65
2021/12/21 00:14:26;;;;;;;26.67;17.10;;;;;;;0.17;74.32;96546.44;10289277;28;96788;-65
2021/12/21 00:19:51;;;;;;;27.30;16.15;;;;;;;0.24;74.26;96544.41;10301556;28;98983;-65
2021/12/21 00:24:54;;;;;;;25.02;15.00;;;;;;;0.19;74.32;96530.94;10292209;28;97575;-65
2021/12/21 00:29:58;;;;;;;27.92;15.55;;;;;;;0.11;74.30;96531.31;10290186;28;96898;-65
2021/12/21 00:35:01;;;;;;;25.23;15.77;;;;;;;0.01;74.38;96536.09;10291196;28;98033;-65
2021/12/21 00:40:04;;;;;;;31.17;16.08;;;;;;;0.00;74.58;96539.56;10287848;28;97261;-65
2021/12/21 00:45:09;;;;;;;25.02;15.13;;;;;;;0.01;74.25;96540.38;10287363;28;97260;-65
2021/12/21 00:50:16;;;;;;;27.98;16.23;;;;;;;-0.02;74.11;96540.56;10287047;28;96827;-65
2021/12/21 00:55:21;;;;;;;25.27;15.20;;;;;;;0.04;74.42;96535.09;10283314;28;98867;-65
2021/12/21 01:00:25;;;;;;;27.35;15.38;;;;;;;0.03;74.25;96531.72;10283529;28;96988;-65
2021/12/21 01:05:34;;;;;;;28.13;15.53;;;;;;;-0.05;74.13;96538.13;10281453;28;96825;-65
2021/12/21 01:11:04;;;;;;;24.42;14.88;;;;;;;0.02;73.63;96535.16;10282463;28;97657;-65
2021/12/21 01:16:19;;;;;;;24.13;15.23;;;;;;;0.00;74.29;96534.41;10284061;28;99167;-65
2021/12/21 01:21:27;;;;;;;24.17;15.25;;;;;;;0.00;74.26;96539.56;10283304;28;96909;-64
2021/12/21 01:26:37;;;;;;;23.42;15.13;;;;;;;0.06;74.46;96548.69;10285089;28;96722;-65
2021/12/21 01:31:50;;;;;;;25.40;16.00;;;;;;;0.04;74.55;96553.06;10288191;28;96845;-65
2021/12/21 01:36:59;;;;;;;23.70;15.25;;;;;;;0.01;73.89;96546.38;10285588;28;98680;-65
2021/12/21 01:42:08;;;;;;;22.38;14.18;;;;;;;-0.09;73.43;96539.16;10292721;28;100241;-65
2021/12/21 01:52:33;;;;;;;26.45;15.50;;;;;;;-0.02;74.08;96537.97;10300018;28;97053;-65
2021/12/21 01:57:35;;;;;;;23.77;14.77;;;;;;;-0.02;73.95;96531.09;10287503;28;97130;-65
2021/12/21 02:02:40;;;;;;;26.10;15.05;;;;;;;0.00;73.80;96529.28;10294689;28;97063;-65
2021/12/21 02:07:43;;;;;;;26.20;14.47;;;;;;;-0.06;73.46;96531.31;10291365;28;96952;-65
2021/12/21 02:12:46;;;;;;;27.48;15.88;;;;;;;-0.05;73.30;96533.81;10289248;28;96891;-64
2021/12/21 02:18:27;;;;;;;25.65;15.27;;;;;;;-0.01;73.48;96532.78;10289739;28;97108;-65
2021/12/21 02:23:33;;;;;;;26.20;15.48;;;;;;;-0.09;72.90;96529.75;10287013;28;96864;-65
2021/12/21 02:33:55;;;;;;;23.02;15.43;;;;;;;-0.16;73.20;96518.94;10159664;28;97030;-64
2021/12/21 02:38:59;;;;;;;25.33;15.13;;;;;;;-0.22;73.75;96513.28;10166155;28;97361;-65
2021/12/21 02:44:03;;;;;;;26.53;15.13;;;;;;;-0.22;73.36;96513.28;10171315;28;98263;-65
2021/12/21 02:49:07;;;;;;;25.00;14.77;;;;;;;-0.35;73.39;96506.16;10168729;28;96957;-65
2021/12/21 02:54:13;;;;;;;25.25;14.85;;;;;;;-0.40;73.80;96504.72;10169448;28;96935;-65
2021/12/21 02:59:15;;;;;;;23.25;14.73;;;;;;;-0.46;73.32;96498.13;10175865;28;97066;-65
2021/12/21 03:04:19;;;;;;;25.52;13.80;;;;;;;-0.47;73.71;96493.94;10165201;28;97716;-65
2021/12/21 03:09:39;;;;;;;22.05;12.65;;;;;;;-0.47;73.84;96493.94;10208081;28;99426;-65
2021/12/21 03:14:42;;;;;;;19.77;12.68;;;;;;;-0.52;73.45;96498.44;10288842;28;96942;-65
2021/12/21 03:19:46;;;;;;;22.20;13.00;;;;;;;-0.52;73.11;96496.69;10288098;28;96873;-65
2021/12/21 03:24:50;;;;;;;20.50;13.48;;;;;;;-0.56;73.76;96484.94;10282757;28;96990;-65
2021/12/21 03:29:52;;;;;;;20.85;13.40;;;;;;;-0.59;73.71;96484.25;10285163;28;96845;-64
2021/12/21 03:34:55;;;;;;;23.77;13.18;;;;;;;-0.50;73.57;96490.69;10286323;28;96870;-65
2021/12/21 03:40:01;;;;;;;21.85;13.93;;;;;;;-0.48;72.84;96481.16;10283977;28;97230;-65
2021/12/21 03:45:05;;;;;;;19.55;12.70;;;;;;;-0.59;73.54;96479.94;10294278;28;97119;-64
2021/12/21 03:50:17;;;;;;;24.27;13.50;;;;;;;-0.67;72.84;96478.66;10291822;28;97334;-65
2021/12/21 03:55:21;;;;;;;23.40;14.73;;;;;;;-0.60;72.86;96482.56;10292027;28;96851;-65
2021/12/21 04:00:27;;;;;;;25.40;14.02;;;;;;;-0.56;72.55;96494.38;10291628;28;96961;-64
2021/12/21 04:05:30;;;;;;;22.27;13.82;;;;;;;-0.63;72.79;96487.84;10290659;28;96828;-65
2021/12/21 04:10:34;;;;;;;22.92;14.02;;;;;;;-0.66;72.95;96485.47;10294509;28;96816;-65
2021/12/21 04:15:42;;;;;;;24.73;15.05;;;;;;;-0.64;72.89;96478.50;10290101;28;96902;-65
2021/12/21 04:20:45;;;;;;;24.77;15.23;;;;;;;-0.49;72.41;96479.50;10286615;28;96980;-64
2021/12/21 04:25:49;;;;;;;25.55;15.48;;;;;;;-0.48;72.48;96471.72;10295129;28;96804;-65
2021/12/21 04:30:52;;;;;;;24.75;14.50;;;;;;;-0.55;72.77;96470.38;10288646;28;97930;-65
2021/12/21 04:35:56;;;;;;;25.95;15.85;;;;;;;-0.56;72.88;96479.81;10289865;28;96950;-64
2021/12/21 04:41:07;;;;;;;27.98;16.50;;;;;;;-0.52;72.70;96480.47;10288994;28;99469;-65
2021/12/21 04:46:11;;;;;;;25.50;15.73;;;;;;;-0.50;72.59;96483.81;10286384;28;98895;-65
2021/12/21 04:51:14;;;;;;;24.75;15.32;;;;;;;-0.46;72.88;96480.16;10289933;28;96816;-65
2021/12/21 04:56:18;;;;;;;25.10;15.57;;;;;;;-0.45;71.92;96474.16;10290192;28;96884;-65
2021/12/21 05:01:21;;;;;;;25.98;14.75;;;;;;;-0.57;72.43;96475.56;10288163;28;100045;-65
2021/12/21 05:06:25;;;;;;;24.30;15.45;;;;;;;-0.73;73.36;96470.34;10287875;28;96914;-65
2021/12/21 05:11:33;;;;;;;24.67;15.43;;;;;;;-0.76;73.11;96472.22;10290294;28;97396;-65
2021/12/21 05:16:36;;;;;;;27.95;14.43;;;;;;;-0.80;73.60;96480.97;10290871;28;97675;-65
2021/12/21 05:21:39;;;;;;;22.40;14.40;;;;;;;-0.85;72.65;96486.31;10289617;28;98542;-65
2021/12/21 05:26:43;;;;;;;27.88;14.98;;;;;;;-0.86;72.43;96483.81;10288736;28;96935;-65
2021/12/21 05:31:46;;;;;;;24.70;15.15;;;;;;;-0.87;72.39;96483.00;10291155;28;97106;-65
2021/12/21 05:36:49;;;;;;;22.88;14.32;;;;;;;-0.91;73.51;96484.03;10288237;28;96840;-65
2021/12/21 05:41:55;;;;;;;22.88;15.35;;;;;;;-0.96;72.48;96481.69;10288466;28;96761;-65
2021/12/21 05:46:58;;;;;;;25.00;15.80;;;;;;;-1.04;73.53;96477.81;10293025;28;97749;-65
2021/12/21 05:52:01;;;;;;;22.92;14.00;;;;;;;-1.03;72.42;96482.03;10294452;28;96891;-65
2021/12/21 05:57:06;;;;;;;22.63;14.00;;;;;;;-1.01;72.87;96487.94;10295568;28;96984;-65
2021/12/21 06:02:10;;;;;;;24.25;15.32;;;;;;;-0.88;72.05;96488.19;10289851;28;96775;-65
2021/12/21 06:07:13;;;;;;;23.02;14.30;;;;;;;-0.88;72.79;96488.19;10297761;28;96782;-65
2021/12/21 06:12:31;;;;;;;22.77;13.57;;;;;;;-0.92;72.27;96485.75;10296548;28;100231;-65
2021/12/21 06:23:13;;;;;;;25.75;15.02;;;;;;;-0.68;72.60;96495.78;10289035;28;96727;-65
2021/12/21 06:28:18;;;;;;;21.35;13.68;;;;;;;-0.64;72.50;96496.47;10281777;28;96984;-65
2021/12/21 06:33:21;;;;;;;28.83;16.83;;;;;;;-0.59;72.97;96491.94;10285696;28;97003;-65
2021/12/21 06:38:24;;;;;;;27.63;16.48;;;;;;;-0.52;72.12;96494.13;10287143;28;96933;-65
2021/12/21 06:43:30;;;;;;;28.00;17.08;;;;;;;-0.49;72.05;96490.59;10288690;28;100245;-65
2021/12/21 06:53:55;;;;;;;29.75;17.23;;;;;;;-0.46;73.13;96497.31;10198125;28;100112;-66
2021/12/21 06:59:00;;;;;;;29.05;16.88;;;;;;;-0.43;72.25;96505.69;10202048;28;96922;-65
2021/12/21 07:04:05;;;;;;;28.20;17.52;;;;;;;-0.40;72.99;96508.13;10199418;28;97048;-65
2021/12/21 07:09:14;;;;;;;29.77;17.83;;;;;;;-0.39;72.30;96509.81;10202424;28;97367;-65
2021/12/21 07:19:40;;;;;;;26.80;16.92;;;;;;;-0.43;72.34;96505.69;10204219;28;99144;-66
2021/12/21 07:24:44;;;;;;;26.00;15.70;;;;;;;-0.48;72.58;96517.09;10201714;28;100545;-65
2021/12/21 07:29:49;;;;;;;27.88;16.52;;;;;;;-0.43;72.14;96513.41;10239601;28;97258;-65
2021/12/21 07:34:53;;;;;;;27.55;17.00;;;;;;;-0.41;72.45;96519.28;10286390;28;97057;-66
2021/12/21 07:39:56;;;;;;;27.55;16.15;;;;;;;-0.39;72.00;96514.94;10286909;28;102459;-65
2021/12/21 07:45:00;;;;;;;26.88;16.80;;;;;;;-0.35;72.57;96524.13;10286963;28;98560;-66
2021/12/21 07:50:03;;;;;;;29.25;16.52;;;;;;;-0.34;72.73;96522.38;10290440;28;96902;-65
2021/12/21 07:55:07;;;;;;;29.92;16.95;;;;;;;-0.31;72.31;96516.28;10291736;28;96934;-65
2021/12/21 08:00:13;;;;;;;26.35;15.98;;;;;;;-0.55;71.95;96521.69;10287685;28;97675;-65
2021/12/21 08:05:17;;;;;;;26.75;15.68;;;;;;;-0.66;72.81;96517.06;10275673;28;97382;-65
2021/12/21 08:10:27;;;;;;;29.00;16.30;;;;;;;-0.54;72.35;96523.34;10289246;28;96866;-65
2021/12/21 08:15:33;;;;;;;27.98;17.00;;;;;;;-0.48;72.65;96527.38;10274408;28;98940;-66
2021/12/21 08:20:36;;;;;;;29.07;16.80;;;;;;;-0.51;72.08;96530.91;10290440;28;96892;-65
2021/12/21 08:25:39;;;;;;;24.15;14.45;;;;;;;-0.56;72.25;96533.69;10286878;28;96905;-65
2021/12/21 08:30:44;;;;;;;28.23;17.10;;;;;;;-0.58;72.38;96537.22;10284370;28;97008;-65
2021/12/21 08:35:47;;;;;;;24.80;15.07;;;;;;;-0.46;72.46;96535.81;10280413;28;97713;-66
2021/12/21 08:40:53;;;;;;;26.20;16.08;;;;;;;-0.39;71.60;96538.03;10285020;28;96832;-65
2021/12/21 08:45:57;;;;;;;;;;;;;;;-0.36;71.23;96539.59;10284187;28;98109;-65
2021/12/21 08:51:00;;;;;;;26.98;16.52;;;;;;;-0.26;72.18;96545.16;10280182;28;97578;-65
2021/12/21 08:56:03;;;;;;;23.15;14.55;;;;;;;-0.23;71.37;96550.09;10293884;28;100983;-65
2021/12/21 09:01:08;;;;;;;27.08;15.65;;;;;;;-0.35;72.13;96554.94;10282348;28;97009;-65
2021/12/21 09:06:11;;;;;;;25.65;16.08;;;;;;;-0.41;71.78;96547.50;10281682;28;97450;-65
2021/12/21 09:11:14;;;;;;;27.77;15.93;;;;;;;-0.22;71.26;96559.47;10286582;28;97054;-65
2021/12/21 09:16:18;;;;;;;24.88;15.52;;;;;;;-0.20;71.09;96557.66;10283191;28;101004;-65
2021/12/21 09:21:21;;;;;;;26.33;15.77;;;;;;;-0.22;71.03;96568.00;10273074;28;98033;-66
2021/12/21 09:26:25;;;;;;;27.45;16.25;;;;;;;-0.24;71.69;96558.72;10282858;28;97794;-65
2021/12/21 09:31:30;;;;;;;24.73;14.95;;;;;;;-0.10;71.47;96574.28;10272289;28;98602;-65
2021/12/21 09:36:34;;;;;;;24.27;15.30;;;;;;;-0.17;71.58;96563.47;10280875;28;98214;-65
2021/12/21 09:41:37;;;;;;;26.48;15.00;;;;;;;-0.09;71.40;96565.69;10282151;28;96891;-65
2021/12/21 09:46:41;;;;;;;25.23;15.10;;;;;;;-0.19;70.71;96565.31;10280703;28;96866;-65
2021/12/21 09:51:44;;;;;;;26.90;15.93;;;;;;;-0.23;71.62;96575.78;10284474;28;97667;-65
2021/12/21 09:56:48;;;;;;;27.08;15.15;;;;;;;-0.29;70.97;96569.22;10296293;28;97817;-65
2021/12/21 10:01:55;;;;;;;28.20;17.15;;;;;;;-0.18;71.62;96571.25;10291682;28;96821;-65
2021/12/21 10:07:00;;;;;;;25.63;16.73;;;;;;;-0.02;70.48;96572.19;10286207;28;96944;-66
2021/12/21 10:12:03;;;;;;;26.53;15.57;;;;;;;0.10;70.47;96567.34;10287308;28;97778;-65
2021/12/21 10:17:09;;;;;;;24.38;15.10;;;;;;;0.11;70.23;96566.47;10287972;28;96917;-65
2021/12/21 10:22:14;;;;;;;24.15;15.75;;;;;;;0.15;70.58;96570.53;10285149;28;97417;-65
2021/12/21 10:27:19;;;;;;;27.40;14.85;;;;;;;0.21;70.52;96560.78;10284924;28;96924;-65
2021/12/21 10:32:24;;;;;;;;;;;;;;;0.31;70.45;96566.31;10287599;28;97500;-65
2021/12/21 10:37:31;;;;;;;25.35;15.10;;;;;;;0.38;70.53;96570.22;10285052;28;101180;-65
2021/12/21 10:42:45;;;;;;;25.67;15.88;;;;;;;0.39;70.33;96558.19;10285762;28;97238;-65
2021/12/21 10:47:49;;;;;;;25.63;15.38;;;;;;;0.34;70.87;96558.44;10283925;28;99601;-65
2021/12/21 10:52:56;;;;;;;24.63;16.03;;;;;;;0.44;70.23;96558.78;10291595;28;97270;-65
2021/12/21 10:58:06;;;;;;;26.50;16.30;;;;;;;0.40;70.39;96552.16;10284647;28;97019;-65
2021/12/21 11:03:10;;;;;;;24.60;15.18;;;;;;;0.29;70.47;96545.00;10283457;28;97332;-65
2021/12/21 11:08:24;;;;;;;27.93;16.80;;;;;;;0.27;70.29;96540.81;10286642;28;97647;-65
2021/12/21 11:13:27;;;;;;;26.55;16.50;;;;;;;0.38;70.19;96539.38;10288216;28;96938;-66
2021/12/21 11:18:33;;;;;;;28.08;16.25;;;;;;;0.52;70.48;96532.72;10287523;28;96822;-65
2021/12/21 11:23:36;;;;;;;26.55;16.02;;;;;;;0.56;70.36;96526.50;10286494;28;96816;-65
2021/12/21 11:28:39;;;;;;;25.15;15.57;;;;;;;0.59;70.37;96524.59;10294026;28;99757;-65
2021/12/21 11:33:46;;;;;;;23.15;14.88;;;;;;;0.70;69.86;96523.22;10285220;28;97032;-65
2021/12/21 11:38:49;;;;;;;27.10;15.80;;;;;;;0.65;69.65;96514.91;10285930;28;96930;-65
2021/12/21 11:43:59;;;;;;;24.92;16.20;;;;;;;0.68;69.33;96510.44;10289742;28;97218;-65
2021/12/21 11:49:12;;;;;;;27.67;15.00;;;;;;;0.66;69.24;96506.28;10281158;28;97383;-65
2021/12/21 11:54:17;;;;;;;25.52;15.43;;;;;;;0.63;69.66;96512.41;10284386;28;96745;-65
2021/12/21 11:59:21;;;;;;;;;;;;;;;0.56;68.83;96501.59;10293592;28;96992;-65
2021/12/21 12:04:26;;;;;;;23.23;15.30;;;;;;;0.48;69.24;96493.50;10286475;28;99060;-65
2021/12/21 12:09:32;;;;;;;25.70;15.75;;;;;;;0.52;69.10;96494.16;10287087;28;96773;-65
2021/12/21 12:14:37;;;;;;;26.50;15.73;;;;;;;0.63;69.27;96476.41;10287204;28;97186;-65
2021/12/21 12:19:43;;;;;;;25.40;15.97;;;;;;;0.70;69.00;96457.19;10288527;28;96867;-65
2021/12/21 12:24:56;;;;;;;24.27;15.52;;;;;;;0.71;68.71;96451.13;10291844;28;96920;-65
2021/12/21 12:30:01;;;;;;;23.98;15.55;;;;;;;0.82;68.85;96449.72;10285601;28;96822;-65
2021/12/21 12:35:10;;;;;;;27.03;16.77;;;;;;;0.95;68.84;96456.69;10289376;28;97058;-65
2021/12/21 12:40:14;;;;;;;29.08;16.90;;;;;;;1.13;68.24;96447.13;10280944;28;97826;-65
2021/12/21 12:45:20;;;;;;;25.30;16.07;;;;;;;1.12;68.40;96442.91;10279630;28;98676;-65
2021/12/21 12:50:27;;;;;;;26.17;16.88;;;;;;;1.16;68.04;96441.81;10289477;28;97861;-65
2021/12/21 12:55:38;;;;;;;25.00;16.08;;;;;;;1.01;68.16;96424.66;10282183;28;96788;-65
2021/12/21 13:01:05;;;;;;;27.42;16.52;;;;;;;0.67;68.31;96421.38;10285465;28;97104;-65
2021/12/21 13:06:13;;;;;;;30.00;16.90;;;;;;;0.49;68.33;96418.03;10287903;28;98161;-65
2021/12/21 13:11:19;;;;;;;26.70;16.55;;;;;;;0.31;68.78;96419.81;10292724;28;97258;-65
2021/12/21 13:16:24;;;;;;;28.00;17.42;;;;;;;0.21;69.07;96410.94;10285360;28;96922;-65
2021/12/21 13:21:32;;;;;;;27.05;16.95;;;;;;;0.21;68.05;96413.50;10282340;28;96909;-65
2021/12/21 13:26:37;;;;;;;26.90;17.38;;;;;;;0.29;68.16;96411.38;10286589;28;96766;-65
2021/12/21 13:31:40;;;;;;;32.33;18.33;;;;;;;0.42;68.09;96402.09;10292636;28;97184;-65
2021/12/21 13:36:46;;;;;;;31.60;19.17;;;;;;;0.54;68.29;96405.75;10297930;28;99071;-65
2021/12/21 13:41:51;;;;;;;28.42;18.25;;;;;;;0.63;68.07;96408.75;10292478;28;98417;-65
2021/12/21 13:46:56;;;;;;;28.83;17.10;;;;;;;0.70;67.48;96408.31;10298383;28;97081;-65
2021/12/21 13:52:20;;;;;;;28.45;17.35;;;;;;;0.63;68.13;96411.31;10297588;28;97001;-65
2021/12/21 13:57:26;;;;;;;30.30;18.23;;;;;;;0.46;68.15;96412.22;10270813;28;96915;-64
2021/12/21 14:02:34;;;;;;;29.40;18.23;;;;;;;0.43;68.62;96398.63;10288339;28;100213;-65
2021/12/21 14:07:41;;;;;;;28.92;17.63;;;;;;;0.53;68.78;96404.09;10286219;28;98639;-64
2021/12/21 14:12:55;;;;;;;30.27;17.83;;;;;;;0.59;68.34;96388.34;10297081;28;96909;-66
2021/12/21 14:17:58;;;;;;;33.20;17.42;;;;;;;0.68;68.46;96397.28;10290101;28;98245;-66
2021/12/21 14:23:03;;;;;;;28.90;18.45;;;;;;;0.69;67.89;96393.81;10290262;28;96868;-66
2021/12/21 14:28:09;;;;;;;29.23;17.80;;;;;;;0.72;67.82;96388.53;10287564;28;97552;-66
2021/12/21 14:33:25;;;;;;;29.35;17.75;;;;;;;0.67;68.25;96385.38;10288451;28;97650;-66
2021/12/21 14:38:29;;;;;;;29.48;18.27;;;;;;;0.70;68.26;96387.75;10275454;28;98540;-66
2021/12/21 14:43:32;;;;;;;29.95;18.27;;;;;;;0.74;68.48;96389.25;10288135;28;101102;-66
2021/12/21 14:48:35;;;;;;;29.67;17.02;;;;;;;0.74;68.47;96394.41;10281280;28;97907;-67
2021/12/21 14:53:47;;;;;;;32.95;18.02;;;;;;;0.74;68.67;96399.53;10284940;28;97864;-67
2021/12/21 14:58:57;;;;;;;32.72;18.33;;;;;;;0.77;69.12;96396.78;10284423;28;96686;-66
2021/12/21 15:04:11;;;;;;;30.33;18.77;;;;;;;0.77;69.14;96396.78;10283698;28;96985;-66
2021/12/21 15:09:15;;;;;;;32.53;20.20;;;;;;;0.70;69.24;96405.75;10283381;28;97257;-66
2021/12/21 15:14:19;;;;;;;34.97;18.85;;;;;;;0.69;68.98;96404.09;10291270;28;97138;-64
2021/12/21 15:19:22;;;;;;;31.83;18.42;;;;;;;0.63;69.40;96414.72;10298044;28;97633;-64
2021/12/21 15:24:26;;;;;;;34.28;18.92;;;;;;;0.56;69.17;96410.81;10283440;28;97726;-64
2021/12/21 15:29:29;;;;;;;32.90;19.13;;;;;;;0.47;69.43;96401.84;10285159;28;97280;-64
2021/12/21 15:34:32;;;;;;;34.55;18.95;;;;;;;0.43;69.35;96414.03;10290487;28;96770;-64
2021/12/21 15:39:37;;;;;;;33.88;19.80;;;;;;;0.41;69.43;96409.88;10283972;28;96933;-64
2021/12/21 15:44:42;;;;;;;33.97;19.77;;;;;;;0.38;69.51;96418.59;10286341;28;97334;-64
2021/12/21 15:49:47;;;;;;;33.05;19.02;;;;;;;0.33;70.21;96412.88;10284780;28;98902;-64
2021/12/21 15:54:52;;;;;;;35.53;20.27;;;;;;;0.20;69.53;96412.69;10284801;28;96978;-64
2021/12/21 15:59:57;;;;;;;32.70;18.88;;;;;;;0.10;70.29;96421.78;10283638;28;96990;-64
2021/12/21 16:05:00;;;;;;;;;;;;;;;-0.03;70.32;96442.09;10285992;28;97256;-65
2021/12/21 16:10:07;;;;;;;32.78;18.63;;;;;;;-0.17;69.62;96429.13;10290855;28;98766;-65
2021/12/21 16:15:11;;;;;;;32.97;18.58;;;;;;;-0.29;69.95;96435.72;10284680;28;98848;-65
2021/12/21 16:20:16;;;;;;;33.75;19.20;;;;;;;-0.56;70.79;96437.94;10273222;28;96854;-65
2021/12/21 16:25:20;;;;;;;37.45;20.60;;;;;;;-0.76;70.37;96442.25;10287257;28;96901;-65
2021/12/21 16:30:41;;;;;;;40.03;20.13;;;;;;;-0.80;70.71;96440.75;10284596;28;97011;-65
2021/12/21 16:35:45;;;;;;;37.17;21.90;;;;;;;-0.87;71.03;96439.38;10282913;28;97448;-65
2021/12/21 16:40:52;;;;;;;37.47;19.92;;;;;;;-0.98;71.24;96431.34;10286177;28;96880;-65
2021/12/21 16:45:54;;;;;;;35.50;20.55;;;;;;;-1.08;71.33;96441.25;10281984;28;96787;-65
2021/12/21 16:50:57;;;;;;;39.67;21.00;;;;;;;-1.23;71.94;96452.19;10284699;28;96765;-65
2021/12/21 16:56:02;;;;;;;35.72;19.60;;;;;;;-1.50;72.01;96449.97;10284950;28;98948;-66
2021/12/21 17:01:05;;;;;;;40.03;20.07;;;;;;;-1.69;73.23;96463.59;10279571;28;97755;-66
2021/12/21 17:06:10;;;;;;;33.50;19.92;;;;;;;-1.74;72.61;96462.13;10284174;28;97724;-66
2021/12/21 17:11:17;;;;;;;38.30;19.80;;;;;;;-1.73;73.02;96456.94;10305926;28;99173;-66
2021/12/21 17:16:21;;;;;;;37.20;20.15;;;;;;;-1.68;73.17;96461.88;10293953;28;96823;-66
2021/12/21 17:21:26;;;;;;;36.75;18.95;;;;;;;-1.72;72.50;96465.47;10291805;28;96926;-66
2021/12/21 17:26:31;;;;;;;37.75;19.55;;;;;;;-1.86;73.63;96469.44;10292289;28;101246;-67
2021/12/21 17:31:34;;;;;;;36.45;19.08;;;;;;;-1.98;73.19;96475.09;10290382;28;97720;-66
2021/12/21 17:36:37;;;;;;;36.08;20.25;;;;;;;-2.03;73.50;96487.25;10287376;28;97112;-66
2021/12/21 17:41:41;;;;;;;38.25;20.42;;;;;;;-2.09;73.40;96484.94;10291255;28;96906;-67
2021/12/21 17:46:44;;;;;;;35.47;19.00;;;;;;;-2.09;74.20;96493.47;10286868;28;96966;-67
2021/12/21 17:51:47;;;;;;;38.45;20.17;;;;;;;-2.05;73.31;96494.19;10287201;28;96947;-67
2021/12/21 17:56:51;;;;;;;35.40;19.45;;;;;;;-2.01;72.67;96503.38;10285621;28;96722;-67
2021/12/21 18:01:54;;;;;;;37.77;18.87;;;;;;;-2.14;73.18;96507.34;10289877;28;96790;-66
2021/12/21 18:06:57;;;;;;;34.42;19.50;;;;;;;-2.36;74.17;96510.81;10283947;28;98649;-67
2021/12/21 18:12:01;;;;;;;37.40;19.52;;;;;;;-2.27;75.25;96515.53;10288484;28;96891;-66
2021/12/21 18:17:06;;;;;;;51.53;28.38;;;;;;;-2.07;73.83;96521.59;10287542;28;96910;-67
2021/12/21 18:22:11;;;;;;;53.50;29.97;;;;;;;-1.94;74.31;96517.59;10286539;28;96939;-67
2021/12/21 18:27:15;;;;;;;37.05;20.58;;;;;;;-1.90;74.92;96516.59;10292558;28;98494;-67
2021/12/21 18:32:18;;;;;;;38.22;22.35;;;;;;;-1.86;75.04;96518.09;10301966;28;97291;-67
2021/12/21 18:37:22;;;;;;;56.03;30.30;;;;;;;-1.78;75.15;96527.19;10289166;28;98701;-67
2021/12/21 18:42:26;;;;;;;45.65;26.15;;;;;;;-1.78;75.23;96533.13;10287740;28;101005;-67
2021/12/21 18:47:31;;;;;;;41.00;23.45;;;;;;;-1.69;74.66;96526.78;10291722;28;98149;-67
2021/12/21 18:52:34;;;;;;;37.17;21.73;;;;;;;-1.58;75.55;96532.31;10293863;28;97752;-67
2021/12/21 18:57:40;;;;;;;39.78;21.92;;;;;;;-1.49;74.42;96539.56;10282991;28;97812;-67
2021/12/21 19:02:50;;;;;;;42.85;23.05;;;;;;;-1.38;74.54;96556.22;10279212;28;99228;-67
2021/12/21 19:07:53;;;;;;;47.50;25.08;;;;;;;-1.29;75.04;96548.16;10283619;28;97535;-66
2021/12/21 19:12:57;;;;;;;41.70;22.35;;;;;;;-1.29;75.18;96550.72;10283288;28;98041;-67
2021/12/21 19:18:01;;;;;;;42.63;23.10;;;;;;;-1.26;75.33;96553.13;10282153;28;99023;-67
2021/12/21 19:23:04;;;;;;;40.28;23.33;;;;;;;-1.16;75.25;96556.94;10291134;28;97079;-67
2021/12/21 19:28:10;;;;;;;53.17;30.00;;;;;;;-1.18;74.91;96553.63;10281285;28;96952;-67
2021/12/21 19:33:12;;;;;;;;;;;;;;;-1.18;75.67;96553.63;10282210;28;96959;-67
2021/12/21 19:38:17;;;;;;;38.63;21.77;;;;;;;-1.09;75.41;96557.50;10282693;28;97211;-66
2021/12/21 19:43:22;;;;;;;52.17;27.73;;;;;;;-1.06;75.00;96556.56;10280608;28;98110;-67
2021/12/21 19:48:24;;;;;;;54.70;27.50;;;;;;;-1.05;74.96;96564.16;10295840;28;98398;-68
2021/12/21 19:53:27;;;;;;;43.05;24.33;;;;;;;-1.04;75.21;96565.00;10284722;28;98500;-67
2021/12/21 19:58:33;;;;;;;46.83;25.50;;;;;;;-0.99;75.06;96574.13;10283747;28;97524;-67
2021/12/21 20:03:37;;;;;;;42.38;23.30;;;;;;;-1.01;74.68;96585.38;10285138;28;96824;-67
2021/12/21 20:08:40;;;;;;;41.65;22.80;;;;;;;-0.96;75.78;96588.53;10280021;28;96915;-67
2021/12/21 20:13:50;;;;;;;35.28;20.83;;;;;;;-1.02;74.84;96588.84;10283028;28;96850;-67
2021/12/21 20:18:53;;;;;;;43.40;21.48;;;;;;;-1.08;75.91;96585.63;10284281;28;97283;-67
2021/12/21 20:23:56;;;;;;;41.83;21.77;;;;;;;-1.12;76.27;96589.25;10283193;28;99044;-67
2021/12/21 20:29:00;;;;;;;38.35;20.13;;;;;;;-1.13;75.30;96595.25;10279010;28;98750;-67
2021/12/21 20:34:03;;;;;;;39.65;21.83;;;;;;;-1.11;75.08;96601.16;10290238;28;102703;-68
2021/12/21 20:39:09;;;;;;;38.50;20.30;;;;;;;-1.12;75.67;96596.94;10283422;28;97121;-67
2021/12/21 20:44:13;;;;;;;35.42;19.52;;;;;;;-1.10;75.95;96589.16;10291534;28;96916;-67
2021/12/21 20:49:16;;;;;;;35.15;19.25;;;;;;;-1.10;76.26;96591.72;10286465;28;97029;-67
2021/12/21 20:54:19;;;;;;;41.92;20.95;;;;;;;-1.07;75.80;96601.84;10282699;28;96973;-67
2021/12/21 20:59:23;;;;;;;33.58;18.75;;;;;;;-1.05;75.32;96604.34;10284720;28;96886;-67
2021/12/21 21:04:29;;;;;;;38.15;20.60;;;;;;;-1.05;75.84;96601.78;10283545;28;96988;-67
2021/12/21 21:09:36;;;;;;;37.28;19.50;;;;;;;-1.05;75.84;96601.78;10287781;28;96766;-78
2021/12/21 21:14:41;;;;;;;40.80;21.13;;;;;;;-1.01;76.25;96595.63;10292289;28;97038;-77
2021/12/21 21:19:44;;;;;;;42.70;21.07;;;;;;;-0.92;75.50;96590.09;10284976;28;97867;-75
2021/12/21 21:24:46;;;;;;;45.38;23.17;;;;;;;-0.78;75.39;96592.84;10298538;28;101517;-75
2021/12/21 21:29:51;;;;;;;41.83;21.92;;;;;;;-0.65;75.43;96598.28;10283352;28;96794;-74
2021/12/21 21:34:54;;;;;;;42.28;22.10;;;;;;;-0.58;75.66;96593.66;10300221;28;98006;-67
2021/12/21 21:39:56;;;;;;;42.78;22.90;;;;;;;-0.47;74.92;96594.03;10283595;28;96801;-67
2021/12/21 21:45:01;;;;;;;39.72;20.88;;;;;;;-0.40;75.42;96602.28;10293298;28;96926;-66
2021/12/21 21:50:05;;;;;;;43.65;21.05;;;;;;;-0.38;74.88;96603.03;10294722;28;104218;-67
2021/12/21 21:55:08;;;;;;;44.47;22.75;;;;;;;-0.30;74.99;96602.66;10290133;28;97613;-67
2021/12/21 22:00:14;;;;;;;47.40;23.55;;;;;;;-0.24;74.83;96612.66;10288334;28;97057;-68
2021/12/21 22:05:17;;;;;;;45.17;23.20;;;;;;;-0.23;74.80;96616.88;10290401;28;96989;-67
2021/12/21 22:10:20;;;;;;;41.08;21.10;;;;;;;-0.21;75.40;96618.47;10292465;28;97736;-67
2021/12/21 22:15:24;;;;;;;47.33;26.50;;;;;;;-0.16;75.22;96610.56;10277144;28;97132;-68
2021/12/21 22:20:27;;;;;;;46.67;23.70;;;;;;;-0.12;75.49;96619.78;10290011;28;97881;-67
2021/12/21 22:25:30;;;;;;;44.38;23.45;;;;;;;-0.08;75.05;96620.44;10300951;28;97337;-67
2021/12/21 22:30:35;;;;;;;56.40;28.65;;;;;;;-0.08;75.22;96607.63;10298499;28;97288;-67
2021/12/21 22:35:38;;;;;;;50.90;27.08;;;;;;;-0.07;75.23;96620.38;10308604;28;98515;-67
2021/12/21 22:40:41;;;;;;;46.55;24.80;;;;;;;-0.08;75.24;96616.13;10288902;28;97944;-67
2021/12/21 22:45:45;;;;;;;47.25;23.73;;;;;;;-0.05;75.16;96613.44;10283568;28;97632;-67
2021/12/21 22:50:48;;;;;;;54.17;26.13;;;;;;;-0.06;75.14;96609.22;10286620;28;96922;-67
2021/12/21 22:55:51;;;;;;;53.83;27.63;;;;;;;-0.05;75.00;96608.28;10291042;28;97243;-67
2021/12/21 23:00:58;;;;;;;52.05;26.00;;;;;;;-0.03;75.03;96611.63;10281603;28;98610;-67
2021/12/21 23:06:02;;;;;;;52.20;26.48;;;;;;;-0.03;75.14;96615.94;10283296;28;96894;-67
2021/12/21 23:11:06;;;;;;;49.03;25.50;;;;;;;-0.03;75.40;96611.63;10286721;28;96932;-67
2021/12/21 23:16:11;;;;;;;87.90;38.20;;;;;;;-0.06;75.29;96618.63;10285297;28;96849;-67
2021/12/21 23:21:15;;;;;;;45.58;24.98;;;;;;;-0.12;75.40;96617.19;10277774;28;98561;-67
2021/12/21 23:26:18;;;;;;;46.08;24.15;;;;;;;-0.28;75.42;96613.72;10283940;28;98726;-67
2021/12/21 23:31:27;;;;;;;45.55;24.08;;;;;;;-0.26;75.97;96612.72;10287877;28;100950;-67
2021/12/21 23:36:30;;;;;;;43.67;23.17;;;;;;;-0.34;75.81;96613.09;10286946;28;96817;-67
2021/12/21 23:41:33;;;;;;;48.92;26.73;;;;;;;-0.33;75.60;96609.59;10285553;28;96889;-67